Time;durP1;ratioP1;P1;durP2;ratioP2;P2;SDS_P1;SDS_P2;PMS_P1;PMS_P2;Temp;Humidity;BMP_temperature;BMP_pressure;BME280_temperature;BME280_humidity;BME280_pressure;Samples;Min_cycle;Max_cycle;Signal;HPM_P1;HPM_P2
2022/04/16 00:01:17;;;;;;;;;;;9.20;87.20;;;;;;5064892;28;19926;-68
2022/04/16 00:03:43;;;;;;;;;;;9.20;87.30;;;;;;5071858;28;19912;-68
2022/04/16 00:06:09;;;;;;;;;;;9.20;87.30;;;;;;5065088;28;20017;-68
2022/04/16 00:08:34;;;;;;;;;;;9.10;87.30;;;;;;5046037;28;20432;-68
2022/04/16 00:11:00;;;;;;;;;;;9.20;87.30;;;;;;5064767;28;20029;-68
2022/04/16 00:13:26;;;;;;;;;;;9.10;87.20;;;;;;5042282;28;19919;-68
2022/04/16 00:15:55;;;;;;;;;;;9.10;87.30;;;;;;5069312;28;19908;-68
2022/04/16 00:18:21;;;;;;;;;;;9.10;87.20;;;;;;5068085;28;20241;-68
2022/04/16 00:20:51;;;;;;;;;;;9.10;87.20;;;;;;5068451;28;19916;-68
2022/04/16 00:23:19;;;;;;;;;;;9.10;87.30;;;;;;5051210;28;19943;-68
2022/04/16 00:25:45;;;;;;;;;;;9.00;87.20;;;;;;5065777;28;19912;-68
2022/04/16 00:28:11;;;;;;;;;;;9.10;87.30;;;;;;5068541;28;19915;-68
2022/04/16 00:30:40;;;;;;;;;;;9.00;87.40;;;;;;5065840;28;20361;-68
2022/04/16 00:33:05;;;;;;;;;;;9.00;87.30;;;;;;5073454;28;19912;-68
2022/04/16 00:35:31;;;;;;;;;;;9.00;87.20;;;;;;5068751;28;20391;-68
2022/04/16 00:37:57;;;;;;;;;;;9.00;87.30;;;;;;5068085;28;19970;-68
2022/04/16 00:40:22;;;;;;;;;;;9.00;87.20;;;;;;5067845;28;19916;-68
2022/04/16 00:42:49;;;;;;;;;;;9.00;87.40;;;;;;5067686;28;19920;-68
2022/04/16 00:45:15;;;;;;;;;;;9.00;87.20;;;;;;5067976;28;19923;-68
2022/04/16 00:47:41;;;;;;;;;;;9.00;87.20;;;;;;5060373;28;19913;-68
2022/04/16 00:50:11;;;;;;;;;;;8.90;87.20;;;;;;5067560;28;20240;-68
2022/04/16 00:52:37;;;;;;;;;;;8.90;87.20;;;;;;5068194;28;19958;-68
2022/04/16 00:55:04;;;;;;;;;;;8.90;87.20;;;;;;5064818;28;19967;-68
2022/04/16 00:57:30;;;;;;;;;;;8.90;87.20;;;;;;5067664;28;19916;-68
2022/04/16 00:59:56;;;;;;;;;;;8.90;87.30;;;;;;5047682;28;19962;-68
2022/04/16 01:02:22;;;;;;;;;;;8.90;87.20;;;;;;5071563;28;19909;-68
2022/04/16 01:04:47;;;;;;;;;;;8.90;87.20;;;;;;5065878;28;19919;-69
2022/04/16 01:07:13;;;;;;;;;;;8.80;87.20;;;;;;5067619;28;19920;-69
2022/04/16 01:09:38;;;;;;;;;;;8.80;87.20;;;;;;5048288;28;19917;-68
2022/04/16 01:12:04;;;;;;;;;;;8.80;87.20;;;;;;5065326;28;19916;-68
2022/04/16 01:14:30;;;;;;;;;;;8.80;87.20;;;;;;5065692;28;19919;-68
2022/04/16 01:16:57;;;;;;;;;;;8.80;87.20;;;;;;5074100;28;19916;-68
2022/04/16 01:19:23;;;;;;;;;;;8.80;87.20;;;;;;5049189;28;20010;-69
2022/04/16 01:21:50;;;;;;;;;;;8.80;87.20;;;;;;5067158;28;19918;-68
2022/04/16 01:24:15;;;;;;;;;;;8.80;87.30;;;;;;5066917;28;19913;-68
2022/04/16 01:26:44;;;;;;;;;;;8.70;87.20;;;;;;5066800;28;20581;-68
2022/04/16 01:29:09;;;;;;;;;;;8.70;87.20;;;;;;5067050;28;20368;-68
2022/04/16 01:31:35;;;;;;;;;;;8.70;87.20;;;;;;5067848;28;19924;-68
2022/04/16 01:34:01;;;;;;;;;;;8.70;87.20;;;;;;5070044;28;20502;-68
2022/04/16 01:36:29;;;;;;;;;;;8.70;87.30;;;;;;5066549;28;19942;-68
2022/04/16 01:38:58;;;;;;;;;;;8.70;87.30;;;;;;5067093;28;19962;-68
2022/04/16 01:41:24;;;;;;;;;;;8.70;87.30;;;;;;5065922;28;20011;-68
2022/04/16 01:43:50;;;;;;;;;;;8.70;87.40;;;;;;5066878;28;19995;-68
2022/04/16 01:46:15;;;;;;;;;;;8.70;87.30;;;;;;5066909;28;19909;-68
2022/04/16 01:48:41;;;;;;;;;;;8.60;87.30;;;;;;5066818;28;19916;-68
2022/04/16 01:51:07;;;;;;;;;;;8.60;87.20;;;;;;5066708;28;20617;-68
2022/04/16 01:53:33;;;;;;;;;;;8.60;87.20;;;;;;5066507;28;19966;-69
2022/04/16 01:55:58;;;;;;;;;;;8.60;87.30;;;;;;5066938;28;20003;-68
2022/04/16 01:58:23;;;;;;;;;;;8.60;87.20;;;;;;5066319;28;19942;-68
2022/04/16 02:00:49;;;;;;;;;;;8.60;87.20;;;;;;5066219;28;19913;-68
2022/04/16 02:03:15;;;;;;;;;;;8.60;87.20;;;;;;5068955;28;19919;-68
2022/04/16 02:05:40;;;;;;;;;;;8.60;87.20;;;;;;5066610;28;19912;-68
2022/04/16 02:08:07;;;;;;;;;;;8.50;87.10;;;;;;5066770;28;19923;-68
2022/04/16 02:10:34;;;;;;;;;;;8.50;87.20;;;;;;5066061;28;19995;-68
2022/04/16 02:13:00;;;;;;;;;;;8.50;87.20;;;;;;5065846;28;19935;-68
2022/04/16 02:15:26;;;;;;;;;;;8.50;87.20;;;;;;5068754;28;19912;-68
2022/04/16 02:17:53;;;;;;;;;;;8.50;87.20;;;;;;5066855;28;19908;-68
2022/04/16 02:20:18;;;;;;;;;;;8.50;87.10;;;;;;5064666;28;20350;-68
2022/04/16 02:22:45;;;;;;;;;;;8.50;87.20;;;;;;5046572;28;19955;-68
2022/04/16 02:25:11;;;;;;;;;;;8.50;87.20;;;;;;5066383;28;19951;-68
2022/04/16 02:27:36;;;;;;;;;;;8.50;87.20;;;;;;5065710;28;19958;-68
2022/04/16 02:30:05;;;;;;;;;;;8.50;87.10;;;;;;5066146;28;19924;-68
2022/04/16 02:32:31;;;;;;;;;;;8.50;87.10;;;;;;5066659;28;19912;-69
2022/04/16 02:34:56;;;;;;;;;;;8.50;87.10;;;;;;5046359;28;19916;-68
2022/04/16 02:37:22;;;;;;;;;;;8.50;87.00;;;;;;5064126;28;20368;-68
2022/04/16 02:39:47;;;;;;;;;;;8.50;87.00;;;;;;5045584;28;19923;-68
2022/04/16 02:42:13;;;;;;;;;;;8.40;87.00;;;;;;5065428;28;19913;-68
2022/04/16 02:47:23;;;;;;;;;;;8.50;87.00;;;;;;5066098;28;20273;-68
2022/04/16 02:49:48;;;;;;;;;;;8.40;87.00;;;;;;5065237;28;19916;-68
2022/04/16 02:52:14;;;;;;;;;;;8.40;87.00;;;;;;5065614;28;19912;-69
2022/04/16 02:54:39;;;;;;;;;;;8.50;87.00;;;;;;5065211;28;19909;-68
2022/04/16 02:57:05;;;;;;;;;;;8.40;86.90;;;;;;5065260;28;19927;-68
2022/04/16 02:59:32;;;;;;;;;;;8.40;87.10;;;;;;5065451;28;20383;-68
2022/04/16 03:01:59;;;;;;;;;;;8.50;87.10;;;;;;5067050;28;19916;-68
2022/04/16 03:04:26;;;;;;;;;;;8.40;87.00;;;;;;5065685;28;19912;-68
2022/04/16 03:06:52;;;;;;;;;;;8.50;87.00;;;;;;5065235;28;19908;-68
2022/04/16 03:09:18;;;;;;;;;;;8.40;87.00;;;;;;5065448;28;20410;-68
2022/04/16 03:11:43;;;;;;;;;;;8.40;87.00;;;;;;5064648;28;19912;-68
2022/04/16 03:19:37;;;;;;;;;;;8.40;87.20;;;;;;5064894;28;19945;-68
2022/04/16 03:22:03;;;;;;;;;;;8.40;87.30;;;;;;5064786;28;19908;-68
2022/04/16 03:24:28;;;;;;;;;;;8.40;87.30;;;;;;5062128;28;19935;-68
2022/04/16 03:26:54;;;;;;;;;;;8.50;87.40;;;;;;5053398;28;20261;-68
2022/04/16 03:29:19;;;;;;;;;;;8.40;87.30;;;;;;5048889;28;19981;-68
2022/04/16 03:31:45;;;;;;;;;;;8.40;87.50;;;;;;5064914;28;19919;-68
2022/04/16 03:34:11;;;;;;;;;;;8.40;87.60;;;;;;5047158;28;19966;-68
2022/04/16 03:36:36;;;;;;;;;;;8.40;87.60;;;;;;5064733;28;19912;-68
2022/04/16 03:39:02;;;;;;;;;;;8.40;87.60;;;;;;5065068;28;20380;-68
2022/04/16 03:41:28;;;;;;;;;;;8.40;87.50;;;;;;5063682;28;19920;-69
2022/04/16 03:43:53;;;;;;;;;;;8.40;87.40;;;;;;5065027;28;19958;-68
2022/04/16 03:46:19;;;;;;;;;;;8.40;87.40;;;;;;5065098;28;20346;-68
2022/04/16 03:48:44;;;;;;;;;;;8.40;87.40;;;;;;5053427;28;20034;-69
2022/04/16 03:51:10;;;;;;;;;;;8.40;87.30;;;;;;5064615;28;20545;-68
2022/04/16 03:53:35;;;;;;;;;;;8.40;87.40;;;;;;5064709;28;19947;-68
2022/04/16 04:01:29;;;;;;;;;;;8.40;87.50;;;;;;5064911;28;19923;-68
2022/04/16 04:03:54;;;;;;;;;;;8.40;87.50;;;;;;5046532;28;19913;-68
2022/04/16 04:06:20;;;;;;;;;;;8.40;87.60;;;;;;5046435;28;20394;-68
2022/04/16 04:08:45;;;;;;;;;;;8.40;87.70;;;;;;5064388;28;20008;-68
2022/04/16 04:11:11;;;;;;;;;;;8.40;87.70;;;;;;5064144;28;19912;-68
2022/04/16 04:13:37;;;;;;;;;;;8.40;87.80;;;;;;5064812;28;19944;-68
2022/04/16 04:16:02;;;;;;;;;;;8.40;87.90;;;;;;5048001;28;19912;-68
2022/04/16 04:18:28;;;;;;;;;;;8.40;87.90;;;;;;5064469;28;20044;-68
2022/04/16 04:20:54;;;;;;;;;;;8.40;87.90;;;;;;5063948;28;20006;-69
2022/04/16 04:23:20;;;;;;;;;;;8.40;87.80;;;;;;5063824;28;19916;-68
2022/04/16 04:25:46;;;;;;;;;;;8.40;87.90;;;;;;5063724;28;20508;-68
2022/04/16 04:28:11;;;;;;;;;;;8.40;87.80;;;;;;5063704;28;20001;-68
2022/04/16 04:30:36;;;;;;;;;;;8.40;87.80;;;;;;5063560;28;20524;-68
2022/04/16 04:33:02;;;;;;;;;;;8.40;87.80;;;;;;5063502;28;19912;-68
2022/04/16 04:35:28;;;;;;;;;;;8.40;87.60;;;;;;5064383;28;19912;-68
2022/04/16 04:37:53;;;;;;;;;;;8.40;87.80;;;;;;5064147;28;19912;-68
2022/04/16 04:40:19;;;;;;;;;;;8.40;87.90;;;;;;5063326;28;19912;-68
2022/04/16 04:42:44;;;;;;;;;;;8.40;87.90;;;;;;5062099;28;19954;-68
2022/04/16 04:45:11;;;;;;;;;;;8.40;88.00;;;;;;5063541;28;20325;-68
2022/04/16 04:47:36;;;;;;;;;;;8.40;88.00;;;;;;5063643;28;20345;-68
2022/04/16 04:50:02;;;;;;;;;;;8.40;88.00;;;;;;5063328;28;19917;-68
2022/04/16 04:52:29;;;;;;;;;;;8.40;88.00;;;;;;5063347;28;20003;-68
2022/04/16 04:54:55;;;;;;;;;;;8.40;88.00;;;;;;5063778;28;19912;-69
2022/04/16 04:57:21;;;;;;;;;;;8.40;87.90;;;;;;5061663;28;20350;-68
2022/04/16 04:59:46;;;;;;;;;;;8.40;88.00;;;;;;5045732;28;19909;-68
2022/04/16 05:02:12;;;;;;;;;;;8.40;88.00;;;;;;5066220;28;19967;-68
2022/04/16 05:04:37;;;;;;;;;;;8.40;88.00;;;;;;5067195;28;20074;-68
2022/04/16 05:07:03;;;;;;;;;;;8.40;88.00;;;;;;5066994;28;19919;-68
2022/04/16 05:09:29;;;;;;;;;;;8.40;88.30;;;;;;5067039;28;19916;-69
2022/04/16 05:11:55;;;;;;;;;;;8.40;88.30;;;;;;5066818;28;20406;-68
2022/04/16 05:14:21;;;;;;;;;;;8.40;88.40;;;;;;5066245;28;19985;-68
2022/04/16 05:16:47;;;;;;;;;;;8.40;88.40;;;;;;5066300;28;20367;-68
2022/04/16 05:19:14;;;;;;;;;;;8.40;88.40;;;;;;5064017;28;19917;-69
2022/04/16 05:21:39;;;;;;;;;;;8.40;88.40;;;;;;5066305;28;20254;-69
2022/04/16 05:24:06;;;;;;;;;;;8.40;88.40;;;;;;5065651;28;19913;-68
2022/04/16 05:26:35;;;;;;;;;;;8.40;88.40;;;;;;5066319;28;19938;-69
2022/04/16 05:29:00;;;;;;;;;;;8.40;88.50;;;;;;5066970;28;20332;-68
2022/04/16 05:31:27;;;;;;;;;;;8.40;88.50;;;;;;5066876;28;20030;-68
2022/04/16 05:36:37;;;;;;;;;;;8.40;88.20;;;;;;5066345;28;20304;-68
2022/04/16 05:39:03;;;;;;;;;;;8.40;88.30;;;;;;5066303;28;19913;-69
2022/04/16 05:41:28;;;;;;;;;;;8.40;88.40;;;;;;5065663;28;19913;-68
2022/04/16 05:43:54;;;;;;;;;;;8.40;88.40;;;;;;5065406;28;19974;-69
2022/04/16 05:46:19;;;;;;;;;;;8.40;88.40;;;;;;5066766;28;20455;-69
2022/04/16 05:48:45;;;;;;;;;;;8.40;88.40;;;;;;5045470;28;20340;-69
2022/04/16 05:51:11;;;;;;;;;;;8.30;88.30;;;;;;5066030;28;19955;-69
2022/04/16 05:53:37;;;;;;;;;;;8.40;88.30;;;;;;5066222;28;19921;-69
2022/04/16 05:56:03;;;;;;;;;;;8.40;88.30;;;;;;5064340;28;19961;-69
2022/04/16 05:58:28;;;;;;;;;;;8.40;88.30;;;;;;5066291;28;19919;-69
2022/04/16 06:00:54;;;;;;;;;;;8.40;88.30;;;;;;5048164;28;20093;-69
2022/04/16 06:03:20;;;;;;;;;;;8.40;88.20;;;;;;5067024;28;20399;-69
2022/04/16 06:05:46;;;;;;;;;;;8.40;88.20;;;;;;5064909;28;20011;-69
2022/04/16 06:08:11;;;;;;;;;;;8.40;88.20;;;;;;5065667;28;19912;-69
2022/04/16 06:10:37;;;;;;;;;;;8.40;88.20;;;;;;5066082;28;19912;-68
2022/04/16 06:13:03;;;;;;;;;;;8.40;88.00;;;;;;5065543;28;19913;-68
2022/04/16 06:15:29;;;;;;;;;;;8.40;88.00;;;;;;5065408;28;19912;-68
2022/04/16 06:17:54;;;;;;;;;;;8.50;87.90;;;;;;5065832;28;20403;-69
2022/04/16 06:20:20;;;;;;;;;;;8.50;87.90;;;;;;5065704;28;19995;-69
2022/04/16 06:22:45;;;;;;;;;;;8.50;87.70;;;;;;5065137;28;20001;-68
2022/04/16 06:25:11;;;;;;;;;;;8.60;87.40;;;;;;5065624;28;19948;-68
2022/04/16 06:27:40;;;;;;;;;;;8.60;87.60;;;;;;5065334;28;19917;-69
2022/04/16 06:30:09;;;;;;;;;;;8.70;87.40;;;;;;5065663;28;20364;-69
2022/04/16 06:32:35;;;;;;;;;;;8.70;87.30;;;;;;5066074;28;20346;-69
2022/04/16 06:35:01;;;;;;;;;;;8.80;87.20;;;;;;5065452;28;19920;-68
2022/04/16 06:37:27;;;;;;;;;;;8.80;87.00;;;;;;5065638;28;20317;-68
2022/04/16 06:39:53;;;;;;;;;;;8.90;87.00;;;;;;5047046;28;20011;-69
2022/04/16 06:42:18;;;;;;;;;;;8.90;86.80;;;;;;5065031;28;19996;-69
2022/04/16 06:44:44;;;;;;;;;;;9.00;86.90;;;;;;5065132;28;20543;-69
2022/04/16 06:47:10;;;;;;;;;;;9.00;86.90;;;;;;5065490;28;19962;-69
2022/04/16 06:49:35;;;;;;;;;;;9.00;86.80;;;;;;5065058;28;19920;-69
2022/04/16 06:52:01;;;;;;;;;;;9.10;86.70;;;;;;5065134;28;19919;-68
2022/04/16 06:54:26;;;;;;;;;;;9.10;86.60;;;;;;5065326;28;19965;-69
2022/04/16 06:56:52;;;;;;;;;;;9.10;86.60;;;;;;5065398;28;20361;-69
2022/04/16 06:59:17;;;;;;;;;;;9.10;86.50;;;;;;5065417;28;19920;-69
2022/04/16 07:01:43;;;;;;;;;;;9.10;86.60;;;;;;5067844;28;19915;-69
2022/04/16 07:04:08;;;;;;;;;;;9.20;86.40;;;;;;5073453;28;19919;-69
2022/04/16 07:06:34;;;;;;;;;;;9.20;86.50;;;;;;5065561;28;19961;-68
2022/04/16 07:08:59;;;;;;;;;;;9.20;86.50;;;;;;5064802;28;19912;-69
2022/04/16 07:11:25;;;;;;;;;;;9.30;86.20;;;;;;5065168;28;20058;-68
2022/04/16 07:13:50;;;;;;;;;;;9.30;86.10;;;;;;5064808;28;19927;-68
2022/04/16 07:16:16;;;;;;;;;;;9.30;86.00;;;;;;5075347;28;20049;-68
2022/04/16 07:18:41;;;;;;;;;;;9.40;85.90;;;;;;5068262;28;19915;-68
2022/04/16 07:21:07;;;;;;;;;;;9.50;85.90;;;;;;5064981;28;20050;-69
2022/04/16 07:23:32;;;;;;;;;;;9.50;85.70;;;;;;5064282;28;19928;-68
2022/04/16 07:25:58;;;;;;;;;;;9.60;85.60;;;;;;5065034;28;20007;-69
2022/04/16 07:28:23;;;;;;;;;;;9.60;85.50;;;;;;5065242;28;20266;-68
2022/04/16 07:30:49;;;;;;;;;;;9.70;85.70;;;;;;5065171;28;19956;-68
2022/04/16 07:33:15;;;;;;;;;;;9.70;84.90;;;;;;5074574;28;19959;-69
2022/04/16 07:35:40;;;;;;;;;;;9.80;85.10;;;;;;5064990;28;19951;-69
2022/04/16 07:38:06;;;;;;;;;;;9.90;84.70;;;;;;5064394;28;20597;-68
2022/04/16 07:40:31;;;;;;;;;;;9.90;84.70;;;;;;5064356;28;19955;-68
2022/04/16 07:42:57;;;;;;;;;;;10.00;84.30;;;;;;5064823;28;19974;-68
2022/04/16 07:45:23;;;;;;;;;;;10.10;84.20;;;;;;5064571;28;19920;-69
2022/04/16 07:47:48;;;;;;;;;;;10.10;83.90;;;;;;5064918;28;19927;-69
2022/04/16 07:50:16;;;;;;;;;;;10.20;83.70;;;;;;5064319;28;19913;-69
2022/04/16 07:52:42;;;;;;;;;;;10.20;83.80;;;;;;5063921;28;19913;-68
2022/04/16 07:55:07;;;;;;;;;;;10.30;83.70;;;;;;5063984;28;19999;-69
2022/04/16 07:57:33;;;;;;;;;;;10.30;83.80;;;;;;5062200;28;20003;-69
2022/04/16 07:59:58;;;;;;;;;;;10.30;83.30;;;;;;5064215;28;19916;-69
2022/04/16 08:02:24;;;;;;;;;;;10.40;83.20;;;;;;5065779;28;19916;-68
2022/04/16 08:04:49;;;;;;;;;;;10.40;83.00;;;;;;5064165;28;20023;-68
2022/04/16 08:07:15;;;;;;;;;;;10.40;83.00;;;;;;5063983;28;20410;-69
2022/04/16 08:09:40;;;;;;;;;;;10.50;83.00;;;;;;5063382;28;20034;-69
2022/04/16 08:12:06;;;;;;;;;;;10.50;83.10;;;;;;5064128;28;19927;-69
2022/04/16 08:14:32;;;;;;;;;;;10.50;82.90;;;;;;5063087;28;19909;-68
2022/04/16 08:16:58;;;;;;;;;;;10.50;82.90;;;;;;5065967;28;19923;-69
2022/04/16 08:19:24;;;;;;;;;;;10.60;83.00;;;;;;5045961;28;20339;-68
2022/04/16 08:21:49;;;;;;;;;;;10.60;82.70;;;;;;5063167;28;19939;-68
2022/04/16 08:24:38;;;;;;;;;;;10.70;82.50;;;;;;5063966;28;19996;-68
2022/04/16 08:27:00;;;;;;;;;;;10.70;83.00;;;;;;5062866;28;20039;-68
2022/04/16 08:29:26;;;;;;;;;;;10.80;82.50;;;;;;5061579;28;20031;-67
2022/04/16 08:31:51;;;;;;;;;;;10.80;82.20;;;;;;5058611;28;20372;-68
2022/04/16 08:34:17;;;;;;;;;;;10.90;82.10;;;;;;5070894;28;19908;-68
2022/04/16 08:36:42;;;;;;;;;;;10.90;82.20;;;;;;5066258;28;20693;-68
2022/04/16 08:39:08;;;;;;;;;;;11.00;82.20;;;;;;5067451;28;19915;-68
2022/04/16 08:41:34;;;;;;;;;;;11.00;81.90;;;;;;5065823;28;19935;-69
2022/04/16 08:43:59;;;;;;;;;;;11.00;81.90;;;;;;5067904;28;19918;-68
2022/04/16 08:46:29;;;;;;;;;;;11.00;81.90;;;;;;5066846;28;19920;-68
2022/04/16 08:48:56;;;;;;;;;;;11.00;81.70;;;;;;5067213;28;20576;-69
2022/04/16 08:51:22;;;;;;;;;;;11.00;81.70;;;;;;5067154;28;19923;-68
2022/04/16 08:53:47;;;;;;;;;;;11.10;81.60;;;;;;5067997;28;20307;-68
2022/04/16 08:56:13;;;;;;;;;;;11.10;81.40;;;;;;5067815;28;19967;-68
2022/04/16 08:58:39;;;;;;;;;;;11.20;81.50;;;;;;5067722;28;20060;-68
2022/04/16 09:01:04;;;;;;;;;;;11.10;81.60;;;;;;5067789;28;20246;-68
2022/04/16 09:03:30;;;;;;;;;;;11.10;81.50;;;;;;5078253;28;19928;-68
2022/04/16 09:05:56;;;;;;;;;;;11.10;81.60;;;;;;5067239;28;19916;-68
2022/04/16 09:08:29;;;;;;;;;;;11.10;81.70;;;;;;5067844;28;19919;-68
2022/04/16 09:11:08;;;;;;;;;;;11.10;81.90;;;;;;5066862;28;19932;-68
2022/04/16 09:13:33;;;;;;;;;;;11.20;81.70;;;;;;5067805;28;19917;-68
2022/04/16 09:16:03;;;;;;;;;;;11.20;81.40;;;;;;5075209;28;20226;-68
2022/04/16 09:18:28;;;;;;;;;;;11.10;81.70;;;;;;5069738;28;19966;-68
2022/04/16 09:20:54;;;;;;;;;;;11.10;81.70;;;;;;5060560;28;19912;-68
2022/04/16 09:23:21;;;;;;;;;;;11.10;81.90;;;;;;5067113;28;19909;-68
2022/04/16 09:25:47;;;;;;;;;;;11.10;81.90;;;;;;5049371;28;19917;-68
2022/04/16 09:28:17;;;;;;;;;;;11.20;81.80;;;;;;5067144;28;19908;-68
2022/04/16 09:30:49;;;;;;;;;;;11.20;81.60;;;;;;5066802;28;19948;-68
2022/04/16 09:33:15;;;;;;;;;;;11.30;81.40;;;;;;5076974;28;20047;-68
2022/04/16 09:35:40;;;;;;;;;;;11.30;81.60;;;;;;5068030;28;20401;-68
2022/04/16 09:38:08;;;;;;;;;;;11.30;81.20;;;;;;5067398;28;20562;-68
2022/04/16 09:40:35;;;;;;;;;;;11.30;81.30;;;;;;5065972;28;19990;-68
2022/04/16 09:43:01;;;;;;;;;;;11.30;81.30;;;;;;5066464;28;20516;-68
2022/04/16 09:45:28;;;;;;;;;;;11.40;81.40;;;;;;5045620;28;20365;-68
2022/04/16 09:47:54;;;;;;;;;;;11.40;81.00;;;;;;5058303;28;19924;-67
2022/04/16 09:50:20;;;;;;;;;;;11.50;80.80;;;;;;5066730;28;19965;-67
2022/04/16 09:52:56;;;;;;;;;;;11.50;80.70;;;;;;5066531;28;19921;-67
2022/04/16 09:55:23;;;;;;;;;;;11.50;80.60;;;;;;5066871;28;19912;-67
2022/04/16 09:57:58;;;;;;;;;;;11.50;80.60;;;;;;5066126;28;19972;-67
2022/04/16 10:00:27;;;;;;;;;;;11.50;80.40;;;;;;5064988;28;19912;-67
2022/04/16 10:02:53;;;;;;;;;;;11.60;80.60;;;;;;5066402;28;19971;-67
2022/04/16 10:05:23;;;;;;;;;;;11.60;80.30;;;;;;5066515;28;19912;-67
2022/04/16 10:07:49;;;;;;;;;;;11.70;80.20;;;;;;5066232;28;20385;-67
2022/04/16 10:10:18;;;;;;;;;;;11.70;79.90;;;;;;5066126;28;19958;-68
2022/04/16 10:13:01;;;;;;;;;;;11.70;80.00;;;;;;5066019;28;19912;-68
2022/04/16 10:15:44;;;;;;;;;;;11.80;80.10;;;;;;5070012;28;20033;-68
2022/04/16 10:18:11;;;;;;;;;;;11.80;80.10;;;;;;5070920;28;19933;-68
2022/04/16 10:20:37;;;;;;;;;;;11.90;80.70;;;;;;5065755;28;19920;-68
2022/04/16 10:23:07;;;;;;;;;;;11.90;80.30;;;;;;5066014;28;19990;-68
2022/04/16 10:25:36;;;;;;;;;;;12.00;80.20;;;;;;5048275;28;20560;-68
2022/04/16 10:28:05;;;;;;;;;;;12.00;80.20;;;;;;5048410;28;20347;-68
2022/04/16 10:30:38;;;;;;;;;;;12.10;80.00;;;;;;5066265;28;19920;-68
2022/04/16 10:33:15;;;;;;;;;;;12.20;80.40;;;;;;5073194;28;19919;-68
2022/04/16 10:35:47;;;;;;;;;;;12.20;80.00;;;;;;5065450;28;20646;-68
2022/04/16 10:38:20;;;;;;;;;;;12.30;80.00;;;;;;5065720;28;19991;-68
2022/04/16 10:40:53;;;;;;;;;;;12.40;79.00;;;;;;5065888;28;19917;-68
2022/04/16 10:43:24;;;;;;;;;;;12.50;79.80;;;;;;5065525;28;19923;-68
2022/04/16 10:45:57;;;;;;;;;;;12.60;80.00;;;;;;5065992;28;19919;-67
2022/04/16 10:48:24;;;;;;;;;;;12.60;80.00;;;;;;5066045;28;19955;-68
2022/04/16 10:50:49;;;;;;;;;;;12.80;79.70;;;;;;5065830;28;19917;-67
2022/04/16 10:53:25;;;;;;;;;;;12.90;79.60;;;;;;5065636;28;19912;-67
2022/04/16 10:55:51;;;;;;;;;;;13.00;79.00;;;;;;5049144;28;20007;-67
2022/04/16 10:58:26;;;;;;;;;;;13.10;79.40;;;;;;5061657;28;20292;-67
2022/04/16 11:00:51;;;;;;;;;;;13.20;79.50;;;;;;5065269;28;19916;-68
2022/04/16 11:03:30;;;;;;;;;;;13.30;79.60;;;;;;5073920;28;19908;-67
2022/04/16 11:06:02;;;;;;;;;;;13.40;79.50;;;;;;5065867;28;20463;-67
2022/04/16 11:08:28;;;;;;;;;;;13.50;79.20;;;;;;5065568;28;20037;-67
2022/04/16 11:11:02;;;;;;;;;;;13.60;79.50;;;;;;5065745;28;20677;-67
2022/04/16 11:13:31;;;;;;;;;;;13.70;79.30;;;;;;5064698;28;19939;-67
2022/04/16 11:15:58;;;;;;;;;;;13.80;79.10;;;;;;5073695;28;19912;-67
2022/04/16 11:18:24;;;;;;;;;;;13.90;78.90;;;;;;5066558;28;19947;-68
2022/04/16 11:20:55;;;;;;;;;;;14.00;78.90;;;;;;5065402;28;19950;-67
2022/04/16 11:23:24;;;;;;;;;;;14.10;78.60;;;;;;5047471;28;19917;-67
2022/04/16 11:34:20;;;;;;;;;;;14.50;78.20;;;;;;5070317;28;20392;-67
2022/04/16 11:36:52;;;;;;;;;;;14.60;77.50;;;;;;5064945;28;19909;-67
2022/04/16 11:39:21;;;;;;;;;;;14.70;78.10;;;;;;5063761;28;19948;-67
2022/04/16 11:41:51;;;;;;;;;;;14.80;77.50;;;;;;5061301;28;19920;-68
2022/04/16 11:44:27;;;;;;;;;;;14.90;77.60;;;;;;5064763;28;19923;-68
2022/04/16 11:46:53;;;;;;;;;;;14.90;77.90;;;;;;5061666;28;19917;-67
2022/04/16 11:49:18;;;;;;;;;;;15.00;77.50;;;;;;5064265;28;19928;-67
2022/04/16 11:51:44;;;;;;;;;;;15.10;77.60;;;;;;5063897;28;19951;-67
2022/04/16 11:54:09;;;;;;;;;;;15.10;77.80;;;;;;5063910;28;19948;-67
2022/04/16 11:56:35;;;;;;;;;;;15.20;77.80;;;;;;5064717;28;20617;-67
2022/04/16 11:59:00;;;;;;;;;;;15.30;77.80;;;;;;5064427;28;19913;-68
2022/04/16 12:01:26;;;;;;;;;;;15.30;77.70;;;;;;5065345;28;19928;-67
2022/04/16 12:03:52;;;;;;;;;;;15.30;77.70;;;;;;5070041;28;20353;-68
2022/04/16 12:06:18;;;;;;;;;;;15.40;76.70;;;;;;5046476;28;19919;-68
2022/04/16 12:08:43;;;;;;;;;;;15.40;77.80;;;;;;5064665;28;19920;-68
2022/04/16 12:11:10;;;;;;;;;;;15.50;77.60;;;;;;5066738;28;19938;-67
2022/04/16 12:13:42;;;;;;;;;;;15.50;78.30;;;;;;5068438;28;19920;-67
2022/04/16 12:16:12;;;;;;;;;;;15.50;77.90;;;;;;5076667;28;19965;-67
2022/04/16 12:18:42;;;;;;;;;;;15.60;77.90;;;;;;5068819;28;19908;-67
2022/04/16 12:21:11;;;;;;;;;;;15.60;77.30;;;;;;5068260;28;19916;-67
2022/04/16 12:23:38;;;;;;;;;;;15.70;78.00;;;;;;5068571;28;19912;-67
2022/04/16 12:26:04;;;;;;;;;;;15.70;77.20;;;;;;5068607;28;19962;-67
2022/04/16 12:28:34;;;;;;;;;;;15.80;77.90;;;;;;5068337;28;19908;-67
2022/04/16 12:31:00;;;;;;;;;;;15.80;78.60;;;;;;5068805;28;19912;-68
2022/04/16 12:33:26;;;;;;;;;;;15.80;78.10;;;;;;5063599;28;19928;-67
2022/04/16 12:35:55;;;;;;;;;;;15.80;77.40;;;;;;5061101;28;19912;-67
2022/04/16 12:38:21;;;;;;;;;;;15.90;77.50;;;;;;5068660;28;19979;-67
2022/04/16 12:40:47;;;;;;;;;;;15.90;77.80;;;;;;5067810;28;19987;-67
2022/04/16 12:43:12;;;;;;;;;;;16.00;77.70;;;;;;5049784;28;19915;-67
2022/04/16 12:45:38;;;;;;;;;;;16.00;77.10;;;;;;5067668;28;19916;-67
2022/04/16 12:48:03;;;;;;;;;;;16.00;77.60;;;;;;5068023;28;20339;-67
2022/04/16 12:50:33;;;;;;;;;;;16.10;77.80;;;;;;5067391;28;19920;-68
2022/04/16 12:53:01;;;;;;;;;;;16.10;78.00;;;;;;5067139;28;20635;-68
2022/04/16 12:55:28;;;;;;;;;;;16.20;77.70;;;;;;5066860;28;19928;-67
2022/04/16 12:57:54;;;;;;;;;;;16.20;76.60;;;;;;5066841;28;19919;-68
2022/04/16 13:00:21;;;;;;;;;;;16.30;76.80;;;;;;5068100;28;20534;-67
2022/04/16 13:02:46;;;;;;;;;;;16.30;77.20;;;;;;5068454;28;19916;-67
2022/04/16 13:05:16;;;;;;;;;;;16.30;76.70;;;;;;5048406;28;19935;-68
2022/04/16 13:07:44;;;;;;;;;;;16.40;77.00;;;;;;5066519;28;19919;-68
2022/04/16 13:10:10;;;;;;;;;;;16.40;76.90;;;;;;5060715;28;19923;-68
2022/04/16 13:12:36;;;;;;;;;;;16.40;76.70;;;;;;5067816;28;19909;-68
2022/04/16 13:15:01;;;;;;;;;;;16.50;77.20;;;;;;5064781;28;20534;-67
2022/04/16 13:17:28;;;;;;;;;;;16.50;77.70;;;;;;5073738;28;20397;-68
2022/04/16 13:19:53;;;;;;;;;;;16.60;77.50;;;;;;5067477;28;19925;-68
2022/04/16 13:22:19;;;;;;;;;;;16.60;76.70;;;;;;5066322;28;19917;-68
2022/04/16 13:24:44;;;;;;;;;;;16.60;74.80;;;;;;5067031;28;19909;-68
2022/04/16 13:27:11;;;;;;;;;;;16.60;75.10;;;;;;5067747;28;19924;-68
2022/04/16 13:29:36;;;;;;;;;;;16.70;76.00;;;;;;5067711;28;19928;-68
2022/04/16 13:32:02;;;;;;;;;;;16.70;75.30;;;;;;5070107;28;19916;-69
2022/04/16 13:34:28;;;;;;;;;;;16.80;74.10;;;;;;5067290;28;19923;-66
2022/04/16 13:36:54;;;;;;;;;;;16.80;73.70;;;;;;5066884;28;19916;-66
2022/04/16 13:42:04;;;;;;;;;;;16.90;71.80;;;;;;5066237;28;19923;-67
2022/04/16 13:44:30;;;;;;;;;;;17.00;71.20;;;;;;5066263;28;19908;-67
2022/04/16 13:46:56;;;;;;;;;;;17.10;71.20;;;;;;5065532;28;20711;-66
2022/04/16 13:49:21;;;;;;;;;;;17.10;72.10;;;;;;5065823;28;19920;-66
2022/04/16 13:51:47;;;;;;;;;;;17.10;71.10;;;;;;5066103;28;19912;-66
2022/04/16 13:54:13;;;;;;;;;;;17.30;69.60;;;;;;5065709;28;19924;-66
2022/04/16 13:56:38;;;;;;;;;;;17.30;71.50;;;;;;5066232;28;19912;-66
2022/04/16 13:59:06;;;;;;;;;;;17.40;72.70;;;;;;5066371;28;19913;-66
2022/04/16 14:01:33;;;;;;;;;;;17.40;73.20;;;;;;5066728;28;20049;-66
2022/04/16 14:03:59;;;;;;;;;;;17.40;73.30;;;;;;5049314;28;20636;-66
2022/04/16 14:06:25;;;;;;;;;;;17.40;73.10;;;;;;5066005;28;19970;-66
2022/04/16 14:08:50;;;;;;;;;;;17.50;72.40;;;;;;5065678;28;19981;-66
2022/04/16 14:11:16;;;;;;;;;;;17.50;73.20;;;;;;5047330;28;20530;-66
2022/04/16 14:13:42;;;;;;;;;;;17.50;73.80;;;;;;5066261;28;20222;-66
2022/04/16 14:16:10;;;;;;;;;;;17.60;73.40;;;;;;5070280;28;19978;-66
2022/04/16 14:18:36;;;;;;;;;;;17.60;72.90;;;;;;5065914;28;19916;-66
2022/04/16 14:21:01;;;;;;;;;;;17.70;72.50;;;;;;5065158;28;19913;-66
2022/04/16 14:23:27;;;;;;;;;;;17.70;72.70;;;;;;5065250;28;19915;-66
2022/04/16 14:25:54;;;;;;;;;;;17.70;73.10;;;;;;5063872;28;19924;-67
2022/04/16 14:28:19;;;;;;;;;;;17.70;73.20;;;;;;5064860;28;19936;-67
2022/04/16 14:30:45;;;;;;;;;;;17.80;72.20;;;;;;5064720;28;20019;-70
2022/04/16 14:33:10;;;;;;;;;;;17.80;71.50;;;;;;5065973;28;19920;-68
2022/04/16 14:35:36;;;;;;;;;;;17.90;70.40;;;;;;5064451;28;19916;-68
2022/04/16 14:38:03;;;;;;;;;;;18.00;65.60;;;;;;5064441;28;19980;-68
2022/04/16 14:40:29;;;;;;;;;;;18.10;64.70;;;;;;5063039;28;19912;-69
2022/04/16 14:42:55;;;;;;;;;;;18.20;64.30;;;;;;5064376;28;19948;-67
2022/04/16 14:45:20;;;;;;;;;;;18.30;64.00;;;;;;5064929;28;20017;-69
2022/04/16 14:47:46;;;;;;;;;;;18.40;63.70;;;;;;5065038;28;20015;-69